Time;durP1;ratioP1;P1;durP2;ratioP2;P2;SDS_P1;SDS_P2;PMS_P1;PMS_P2;Temp;Humidity;BMP_temperature;BMP_pressure;BME280_temperature;BME280_humidity;BME280_pressure;Samples;Min_cycle;Max_cycle;Signal;HPM_P1;HPM_P2
2023/04/28 00:00:05;;;;;;;12.70;9.97;;;7.20;99.90;;;;;;5154401;27;20215;-76
2023/04/28 00:02:34;;;;;;;12.97;9.37;;;7.20;99.90;;;;;;5155633;27;20667;-75
2023/04/28 00:05:03;;;;;;;11.57;9.10;;;7.20;99.90;;;;;;5156501;27;20211;-75
2023/04/28 00:07:31;;;;;;;11.70;9.37;;;7.30;99.90;;;;;;5156257;27;20339;-75
2023/04/28 00:09:59;;;;;;;10.87;8.67;;;7.30;99.90;;;;;;5136170;27;20208;-77
2023/04/28 00:12:27;;;;;;;10.87;8.93;;;7.30;99.90;;;;;;5134983;27;20208;-76
2023/04/28 00:14:55;;;;;;;10.57;8.47;;;7.30;99.90;;;;;;5135546;27;20210;-76
2023/04/28 00:17:23;;;;;;;10.70;9.23;;;7.30;99.90;;;;;;5134336;27;20206;-77
2023/04/28 00:19:53;;;;;;;11.83;8.53;;;7.40;99.90;;;;;;5134796;27;20550;-78
2023/04/28 00:22:21;;;;;;;12.80;9.10;;;7.30;99.90;;;;;;5134822;27;20217;-76
2023/04/28 00:24:49;;;;;;;10.77;8.47;;;7.40;99.90;;;;;;5134436;27;20251;-76
2023/04/28 00:27:17;;;;;;;9.83;8.83;;;7.30;99.90;;;;;;5134648;27;20251;-79
2023/04/28 00:29:46;;;;;;;10.77;8.90;;;7.30;99.90;;;;;;5134225;27;20205;-77
2023/04/28 00:32:13;;;;;;;11.37;8.53;;;7.30;99.90;;;;;;5144101;27;20646;-78
2023/04/28 00:34:42;;;;;;;13.03;9.00;;;7.30;99.90;;;;;;5154605;27;20208;-78
2023/04/28 00:37:11;;;;;;;11.50;9.50;;;7.30;99.90;;;;;;5154907;27;20201;-78
2023/04/28 00:39:40;;;;;;;11.37;9.17;;;7.20;99.90;;;;;;5155173;27;20702;-78
2023/04/28 00:42:08;;;;;;;12.10;8.93;;;7.20;99.90;;;;;;5152987;27;20665;-76
2023/04/28 00:44:36;;;;;;;10.43;8.77;;;7.20;99.90;;;;;;5155263;27;20215;-75
2023/04/28 00:47:04;;;;;;;12.30;9.20;;;7.20;99.90;;;;;;5161155;27;20693;-75
2023/04/28 00:49:33;;;;;;;10.47;9.30;;;7.20;99.90;;;;;;5141626;27;20212;-78
2023/04/28 00:52:05;;;;;;;12.77;9.23;;;7.20;99.90;;;;;;5143318;27;20209;-78
2023/04/28 00:54:35;;;;;;;13.43;8.90;;;7.10;99.90;;;;;;5154727;27;20638;-77
2023/04/28 00:57:03;;;;;;;11.97;9.57;;;7.10;99.90;;;;;;5148497;27;20221;-77
2023/04/28 00:59:31;;;;;;;9.93;8.83;;;7.10;99.90;;;;;;5133669;27;20220;-76
2023/04/28 01:02:01;;;;;;;11.33;9.40;;;7.10;99.90;;;;;;5133140;27;20210;-78
2023/04/28 01:04:30;;;;;;;14.77;9.27;;;7.10;99.90;;;;;;5133968;27;20278;-78
2023/04/28 01:07:00;;;;;;;13.40;9.10;;;7.20;99.90;;;;;;5133602;27;20695;-78
2023/04/28 01:09:28;;;;;;;11.20;8.73;;;7.20;99.90;;;;;;5133897;27;20671;-77
2023/04/28 01:11:58;;;;;;;11.40;8.93;;;7.10;99.90;;;;;;5133220;27;20205;-79
2023/04/28 01:14:26;;;;;;;12.30;8.60;;;7.20;99.90;;;;;;5142864;27;20393;-78
2023/04/28 01:16:54;;;;;;;12.47;8.93;;;7.20;99.90;;;;;;5152764;27;20693;-79
2023/04/28 01:19:23;;;;;;;12.00;9.00;;;7.10;99.90;;;;;;5152343;27;20208;-78
2023/04/28 01:21:51;;;;;;;12.27;8.67;;;7.10;99.90;;;;;;5146086;27;20292;-79
2023/04/28 01:24:21;;;;;;;11.40;9.30;;;7.10;99.90;;;;;;5132327;27;20209;-76
2023/04/28 01:26:49;;;;;;;13.17;8.87;;;7.10;99.90;;;;;;5132247;27;20221;-75
2023/04/28 01:29:17;;;;;;;11.27;8.73;;;7.20;99.90;;;;;;5136599;27;20257;-77
2023/04/28 01:31:45;;;;;;;10.80;9.17;;;7.10;99.90;;;;;;5144449;27;20213;-76
2023/04/28 01:34:13;;;;;;;14.60;9.13;;;7.20;99.90;;;;;;5145005;27;20597;-78
2023/04/28 01:36:42;;;;;;;10.07;8.50;;;7.20;99.90;;;;;;5145463;27;20585;-78
2023/04/28 01:39:10;;;;;;;11.73;8.87;;;7.20;99.90;;;;;;5136311;27;20211;-78
2023/04/28 01:41:40;;;;;;;10.17;8.60;;;7.20;99.90;;;;;;5133457;27;20228;-76
2023/04/28 01:44:10;;;;;;;12.90;8.67;;;7.20;99.90;;;;;;5133185;27;20316;-75
2023/04/28 01:46:38;;;;;;;10.87;9.10;;;7.20;99.90;;;;;;5132876;27;20251;-74
2023/04/28 01:49:06;;;;;;;12.23;8.97;;;7.20;99.90;;;;;;5133147;27;20523;-76
2023/04/28 01:51:34;;;;;;;10.83;8.00;;;7.20;99.90;;;;;;5133366;27;20208;-79
2023/04/28 01:54:03;;;;;;;12.57;9.23;;;7.20;99.90;;;;;;5132728;27;20217;-78
2023/04/28 01:56:31;;;;;;;10.33;8.73;;;7.20;99.90;;;;;;5133070;27;20217;-75
2023/04/28 01:59:00;;;;;;;11.80;8.80;;;7.20;99.90;;;;;;5132889;27;20216;-79
2023/04/28 02:01:28;;;;;;;12.30;8.67;;;7.30;99.90;;;;;;5153040;27;20277;-73
2023/04/28 02:03:56;;;;;;;10.17;8.93;;;7.30;99.90;;;;;;5172648;27;20224;-76
2023/04/28 02:06:26;;;;;;;12.47;8.90;;;7.30;99.90;;;;;;5164587;27;20209;-79
2023/04/28 02:08:54;;;;;;;11.07;8.87;;;7.30;99.90;;;;;;5138354;27;20205;-79
2023/04/28 02:11:22;;;;;;;11.30;8.83;;;7.30;99.90;;;;;;5139502;27;20718;-78
2023/04/28 02:13:50;;;;;;;11.67;8.60;;;7.30;99.90;;;;;;5152059;27;20283;-77
2023/04/28 02:16:20;;;;;;;10.57;9.20;;;7.40;99.90;;;;;;5153528;27;20208;-79
2023/04/28 02:18:48;;;;;;;10.80;8.93;;;7.40;99.90;;;;;;5138704;27;20220;-78
2023/04/28 02:21:16;;;;;;;12.57;8.73;;;7.40;99.90;;;;;;5132851;28;20212;-78
2023/04/28 02:23:44;;;;;;;10.57;8.90;;;7.30;99.90;;;;;;5131941;28;20209;-78
2023/04/28 02:26:12;;;;;;;11.37;9.13;;;7.40;99.90;;;;;;5132251;28;20215;-77
2023/04/28 02:28:40;;;;;;;12.97;8.53;;;7.40;99.90;;;;;;5132157;27;20336;-78
2023/04/28 02:31:10;;;;;;;12.40;8.40;;;7.40;99.90;;;;;;5132315;28;20670;-77
2023/04/28 02:33:41;;;;;;;10.07;8.57;;;7.40;99.90;;;;;;5132363;28;20206;-76
2023/04/28 02:36:10;;;;;;;12.60;8.67;;;7.40;99.90;;;;;;5132248;28;20219;-77
2023/04/28 02:38:40;;;;;;;11.07;9.10;;;7.40;99.90;;;;;;5131726;27;20288;-78
2023/04/28 02:41:08;;;;;;;12.27;9.17;;;7.40;99.90;;;;;;5132452;28;20205;-77
2023/04/28 02:43:37;;;;;;;12.23;8.70;;;7.40;99.90;;;;;;5132042;28;20209;-76
2023/04/28 02:46:06;;;;;;;10.37;8.57;;;7.40;99.90;;;;;;5131806;27;20730;-77
2023/04/28 02:48:34;;;;;;;12.60;9.00;;;7.40;99.90;;;;;;5136535;27;20641;-74
2023/04/28 02:51:04;;;;;;;13.80;9.57;;;7.40;99.90;;;;;;5152840;27;20240;-77
2023/04/28 02:53:32;;;;;;;11.00;9.37;;;7.40;99.90;;;;;;5152794;27;20212;-76
2023/04/28 02:56:03;;;;;;;12.00;9.43;;;7.40;99.90;;;;;;5139961;27;20244;-76
2023/04/28 02:58:31;;;;;;;15.37;9.40;;;7.40;99.90;;;;;;5132905;28;20239;-79
2023/04/28 03:00:59;;;;;;;11.97;9.20;;;7.30;99.90;;;;;;5132133;28;20228;-77
2023/04/28 03:03:27;;;;;;;13.03;9.43;;;7.40;99.90;;;;;;5132164;28;20210;-78
2023/04/28 03:05:56;;;;;;;11.87;9.80;;;7.40;99.90;;;;;;5151447;27;20292;-77
2023/04/28 03:08:25;;;;;;;14.97;10.03;;;7.30;99.90;;;;;;5152609;27;20612;-75
2023/04/28 03:10:53;;;;;;;11.13;9.93;;;7.30;99.90;;;;;;5153238;27;20486;-77
2023/04/28 03:13:21;;;;;;;13.00;10.03;;;7.30;99.90;;;;;;5145898;27;20206;-76
2023/04/28 03:15:49;;;;;;;10.63;9.30;;;7.30;99.90;;;;;;5140273;28;20201;-79
2023/04/28 03:18:18;;;;;;;11.40;9.73;;;7.30;99.90;;;;;;5132443;28;20205;-78
2023/04/28 03:20:46;;;;;;;11.67;9.67;;;7.30;99.90;;;;;;5132521;27;20309;-78
2023/04/28 03:23:14;;;;;;;11.63;9.17;;;7.20;99.90;;;;;;5132388;28;20221;-78
2023/04/28 03:25:43;;;;;;;12.13;9.33;;;7.30;99.90;;;;;;5134521;27;20205;-78
2023/04/28 03:28:11;;;;;;;12.27;9.40;;;7.30;99.90;;;;;;5135785;27;20221;-80
2023/04/28 03:30:39;;;;;;;10.80;9.47;;;7.40;99.90;;;;;;5135270;27;20209;-79
2023/04/28 03:33:07;;;;;;;10.67;9.40;;;7.40;99.90;;;;;;5135320;27;20205;-78
2023/04/28 03:35:35;;;;;;;11.33;9.50;;;7.40;99.90;;;;;;5135290;27;20217;-80
2023/04/28 03:38:03;;;;;;;12.93;9.70;;;7.50;99.90;;;;;;5135034;27;20655;-78
2023/04/28 03:40:31;;;;;;;12.40;10.57;;;7.50;99.90;;;;;;5135023;27;20300;-80
2023/04/28 03:43:01;;;;;;;14.10;10.20;;;7.40;99.90;;;;;;5134896;27;20246;-76
2023/04/28 03:45:31;;;;;;;11.07;9.17;;;7.40;99.90;;;;;;5135581;27;20217;-80
2023/04/28 03:47:59;;;;;;;14.03;9.90;;;7.50;99.90;;;;;;5135088;27;20233;-78
2023/04/28 03:50:28;;;;;;;12.37;10.00;;;7.50;99.90;;;;;;5155409;27;20247;-79
2023/04/28 03:52:56;;;;;;;13.77;9.73;;;7.50;99.90;;;;;;5148781;27;20685;-76
2023/04/28 03:55:24;;;;;;;13.53;9.73;;;7.50;99.90;;;;;;5135171;27;20313;-78
2023/04/28 03:57:53;;;;;;;13.30;10.47;;;7.50;99.90;;;;;;5135389;27;20280;-79
2023/04/28 04:00:23;;;;;;;11.60;9.30;;;7.50;99.90;;;;;;5135181;27;20212;-76
2023/04/28 04:02:51;;;;;;;15.03;9.77;;;7.50;99.90;;;;;;5148879;27;20197;-79
2023/04/28 04:05:19;;;;;;;14.93;10.57;;;7.60;99.90;;;;;;5154520;27;20228;-79
2023/04/28 04:07:47;;;;;;;13.73;9.27;;;7.60;99.90;;;;;;5141677;27;20222;-79
2023/04/28 04:10:15;;;;;;;12.23;9.83;;;7.70;99.90;;;;;;5134996;27;20215;-77
2023/04/28 04:12:43;;;;;;;20.77;10.43;;;7.60;99.90;;;;;;5134202;27;20202;-77
2023/04/28 04:15:12;;;;;;;13.60;9.73;;;7.60;99.90;;;;;;5134492;27;20256;-78
2023/04/28 04:17:41;;;;;;;12.73;10.13;;;7.50;99.90;;;;;;5134017;27;20663;-78
2023/04/28 04:20:10;;;;;;;13.03;10.93;;;7.60;99.90;;;;;;5134566;27;20206;-76
2023/04/28 04:22:38;;;;;;;13.73;10.87;;;7.60;99.90;;;;;;5132620;27;20209;-79
2023/04/28 04:25:07;;;;;;;15.00;11.13;;;7.60;99.90;;;;;;5134741;27;20213;-80
2023/04/28 04:27:35;;;;;;;14.83;11.20;;;7.50;99.90;;;;;;5135162;27;20205;-77
2023/04/28 04:30:03;;;;;;;18.23;12.27;;;7.50;99.90;;;;;;5134715;27;20235;-77
2023/04/28 04:32:31;;;;;;;15.80;12.57;;;7.40;99.90;;;;;;5136755;27;20215;-77
2023/04/28 04:35:01;;;;;;;17.37;12.67;;;7.50;99.90;;;;;;5155182;27;20213;-77
2023/04/28 04:37:31;;;;;;;15.17;12.77;;;7.50;99.90;;;;;;5154493;27;20215;-73
2023/04/28 04:39:59;;;;;;;13.87;12.43;;;7.50;99.90;;;;;;5154981;27;20196;-79
2023/04/28 04:42:27;;;;;;;13.37;11.97;;;7.50;99.90;;;;;;5134348;27;20296;-78
2023/04/28 04:44:55;;;;;;;13.27;11.87;;;7.60;99.90;;;;;;5134684;27;20216;-78
2023/04/28 04:47:23;;;;;;;13.90;11.47;;;7.60;99.90;;;;;;5153133;27;20208;-77
2023/04/28 04:49:51;;;;;;;14.43;11.50;;;7.60;99.90;;;;;;5147454;27;20228;-78
2023/04/28 04:52:21;;;;;;;12.83;11.20;;;7.60;99.90;;;;;;5137211;27;20527;-76
2023/04/28 04:54:49;;;;;;;14.13;11.53;;;7.70;99.90;;;;;;5138677;27;20220;-77
2023/04/28 04:57:17;;;;;;;13.53;11.10;;;7.80;99.90;;;;;;5134134;27;20210;-77
2023/04/28 04:59:45;;;;;;;12.40;10.13;;;7.80;99.90;;;;;;5146906;27;20288;-77
2023/04/28 05:02:13;;;;;;;11.67;9.50;;;7.80;99.90;;;;;;5155157;27;20200;-77
2023/04/28 05:04:41;;;;;;;12.20;9.60;;;7.90;99.90;;;;;;5156575;27;20204;-78
2023/04/28 05:07:10;;;;;;;9.40;8.33;;;7.90;99.90;;;;;;5154800;27;20286;-78
2023/04/28 05:09:39;;;;;;;8.27;7.47;;;7.90;99.90;;;;;;5135884;27;20291;-78
2023/04/28 05:12:07;;;;;;;10.10;7.97;;;8.00;99.90;;;;;;5133906;27;20205;-79
2023/04/28 05:14:36;;;;;;;11.03;7.50;;;8.10;99.90;;;;;;5134019;27;20241;-79
2023/04/28 05:17:04;;;;;;;11.10;7.20;;;8.20;99.90;;;;;;5133937;27;20908;-79
2023/04/28 05:19:32;;;;;;;7.93;6.20;;;8.20;99.90;;;;;;5134308;27;20209;-78
2023/04/28 05:22:00;;;;;;;7.97;6.37;;;8.30;99.90;;;;;;5133755;27;20208;-79
2023/04/28 05:24:28;;;;;;;7.10;6.40;;;8.30;99.90;;;;;;5133992;27;20227;-78
2023/04/28 05:26:59;;;;;;;6.93;5.20;;;8.40;99.90;;;;;;5134166;27;20558;-79
2023/04/28 05:29:27;;;;;;;7.90;6.40;;;8.60;99.90;;;;;;5133753;27;20332;-77
2023/04/28 05:31:55;;;;;;;6.90;4.80;;;8.70;99.90;;;;;;5133183;27;20296;-79
2023/04/28 05:34:23;;;;;;;6.93;5.23;;;8.80;99.90;;;;;;5133929;27;20209;-75
2023/04/28 05:36:52;;;;;;;7.87;5.57;;;8.80;99.90;;;;;;5133872;27;20229;-77
2023/04/28 05:39:20;;;;;;;6.10;4.97;;;8.80;99.90;;;;;;5141353;27;20204;-77
2023/04/28 05:41:48;;;;;;;6.70;4.13;;;8.80;99.90;;;;;;5133746;27;20205;-77
2023/04/28 05:44:17;;;;;;;4.63;3.77;;;8.90;99.90;;;;;;5137980;27;20201;-77
2023/04/28 05:46:46;;;;;;;5.63;3.77;;;8.90;99.90;;;;;;5141313;27;20205;-78
2023/04/28 05:49:13;;;;;;;4.80;3.90;;;8.80;99.90;;;;;;5133880;27;20320;-79
2023/04/28 05:51:42;;;;;;;5.00;3.87;;;8.90;99.90;;;;;;5133546;27;20213;-77
2023/04/28 05:54:10;;;;;;;6.63;3.73;;;9.00;99.90;;;;;;5133432;27;20697;-79
2023/04/28 05:56:38;;;;;;;5.47;3.80;;;9.00;99.90;;;;;;5148763;27;20410;-79
2023/04/28 05:59:06;;;;;;;5.50;3.40;;;9.10;99.90;;;;;;5151666;27;20200;-79
2023/04/28 06:01:37;;;;;;;3.93;3.20;;;9.00;99.90;;;;;;5133428;27;20615;-78
2023/04/28 06:04:05;;;;;;;6.37;4.03;;;9.10;99.90;;;;;;5133182;27;20288;-80
2023/04/28 06:06:34;;;;;;;4.80;3.80;;;9.00;99.90;;;;;;5133830;27;20552;-78
2023/04/28 06:09:02;;;;;;;4.33;3.30;;;9.10;99.90;;;;;;5133146;27;20274;-76
2023/04/28 06:11:30;;;;;;;6.23;3.70;;;9.00;99.90;;;;;;5132665;27;20201;-76
2023/04/28 06:13:58;;;;;;;5.43;3.30;;;9.10;99.90;;;;;;5132942;27;20304;-76
2023/04/28 06:16:27;;;;;;;4.50;3.60;;;9.10;99.90;;;;;;5133373;27;20205;-79
2023/04/28 06:18:56;;;;;;;4.00;3.50;;;9.10;99.90;;;;;;5153240;27;20211;-77
2023/04/28 06:21:26;;;;;;;4.03;3.40;;;9.10;99.90;;;;;;5153758;27;20204;-77
2023/04/28 06:23:54;;;;;;;3.90;3.20;;;9.10;99.90;;;;;;5153887;27;20255;-76
2023/04/28 06:26:22;;;;;;;3.37;3.00;;;9.20;99.90;;;;;;5145252;27;20206;-76
2023/04/28 06:28:51;;;;;;;4.73;2.97;;;9.20;99.90;;;;;;5132770;28;20208;-74
2023/04/28 06:31:19;;;;;;;5.87;3.50;;;9.10;99.90;;;;;;5133636;28;20619;-74
2023/04/28 06:33:47;;;;;;;3.10;2.80;;;9.10;99.90;;;;;;5132673;27;20554;-77
2023/04/28 06:36:16;;;;;;;4.17;3.03;;;9.10;99.90;;;;;;5133084;28;20217;-78
2023/04/28 06:38:45;;;;;;;4.97;2.97;;;9.10;99.90;;;;;;5133183;28;20213;-80
2023/04/28 06:41:13;;;;;;;3.80;3.00;;;9.10;99.90;;;;;;5132809;28;20212;-77
2023/04/28 06:43:41;;;;;;;5.53;3.20;;;9.10;99.90;;;;;;5150101;27;20212;-76
2023/04/28 06:46:10;;;;;;;6.00;3.43;;;9.10;99.90;;;;;;5159036;27;20636;-78
2023/04/28 06:48:38;;;;;;;3.90;3.23;;;9.10;99.90;;;;;;5153591;27;20215;-75
2023/04/28 06:51:06;;;;;;;5.77;3.53;;;9.00;99.90;;;;;;5137652;27;20312;-77
2023/04/28 06:53:36;;;;;;;3.97;3.30;;;9.10;99.90;;;;;;5132303;28;20210;-77
2023/04/28 06:56:04;;;;;;;3.93;3.10;;;9.10;99.90;;;;;;5132784;28;20225;-78
2023/04/28 06:58:33;;;;;;;5.83;3.40;;;9.10;99.90;;;;;;5132720;28;20300;-77
2023/04/28 07:01:02;;;;;;;5.70;3.30;;;9.20;99.90;;;;;;5152025;27;20207;-77
2023/04/28 07:03:30;;;;;;;4.93;3.30;;;9.30;99.90;;;;;;5156632;27;20244;-76
2023/04/28 07:05:58;;;;;;;3.73;3.00;;;9.30;99.90;;;;;;5165601;27;20205;-79
2023/04/28 07:08:29;;;;;;;4.10;3.30;;;9.30;99.90;;;;;;5143197;27;20233;-75
2023/04/28 07:10:58;;;;;;;4.97;3.13;;;9.30;99.90;;;;;;5136239;27;20217;-77
2023/04/28 07:13:26;;;;;;;4.77;3.10;;;9.40;99.90;;;;;;5136224;27;20209;-79
2023/04/28 07:15:55;;;;;;;4.23;2.83;;;9.50;99.90;;;;;;5146742;27;20296;-77
2023/04/28 07:18:23;;;;;;;3.60;2.80;;;9.60;99.90;;;;;;5156877;27;20717;-76
2023/04/28 07:20:51;;;;;;;5.40;3.20;;;9.60;99.90;;;;;;5156544;27;20201;-76
2023/04/28 07:23:19;;;;;;;3.80;3.23;;;9.80;99.90;;;;;;5152824;27;20197;-77
2023/04/28 07:25:47;;;;;;;3.87;2.97;;;9.80;99.90;;;;;;5136279;27;20229;-77
2023/04/28 07:28:16;;;;;;;4.43;2.83;;;9.90;99.90;;;;;;5136310;27;20223;-78
2023/04/28 07:30:44;;;;;;;3.73;3.03;;;9.90;99.90;;;;;;5136545;27;20226;-79
2023/04/28 07:33:12;;;;;;;5.83;2.90;;;9.90;99.90;;;;;;5155107;27;20209;-78
2023/04/28 07:35:41;;;;;;;4.13;2.87;;;9.90;99.90;;;;;;5156641;27;20669;-79
2023/04/28 07:38:09;;;;;;;3.37;2.87;;;9.80;99.90;;;;;;5156665;27;20213;-79
2023/04/28 07:40:37;;;;;;;4.40;3.03;;;9.80;99.90;;;;;;5144798;27;20292;-77
2023/04/28 07:43:06;;;;;;;3.47;3.10;;;9.80;99.90;;;;;;5153271;27;20646;-81
2023/04/28 07:45:37;;;;;;;4.97;3.30;;;9.80;99.90;;;;;;5156527;27;20671;-79
2023/04/28 07:48:06;;;;;;;4.40;2.97;;;9.80;99.90;;;;;;5153382;27;20205;-77
2023/04/28 07:50:34;;;;;;;4.73;3.53;;;9.80;99.90;;;;;;5136956;27;20313;-78
2023/04/28 07:53:02;;;;;;;6.37;3.77;;;9.80;99.90;;;;;;5135786;27;20216;-78
2023/04/28 07:55:30;;;;;;;3.53;3.20;;;9.80;99.90;;;;;;5135439;27;20455;-79
2023/04/28 07:57:58;;;;;;;3.40;3.10;;;9.80;99.90;;;;;;5135443;27;20210;-77
2023/04/28 08:00:27;;;;;;;7.43;3.63;;;9.80;99.90;;;;;;5135507;27;20330;-77
2023/04/28 08:02:57;;;;;;;5.03;3.00;;;9.80;99.90;;;;;;5135124;27;20223;-78
2023/04/28 08:05:25;;;;;;;3.37;3.07;;;9.90;99.90;;;;;;5135343;27;20216;-78
2023/04/28 08:07:54;;;;;;;4.17;3.40;;;9.90;99.90;;;;;;5135370;27;20399;-79
2023/04/28 08:10:22;;;;;;;4.97;3.40;;;9.90;99.90;;;;;;5135076;27;20221;-78
2023/04/28 08:12:50;;;;;;;4.67;3.70;;;10.10;99.90;;;;;;5133692;27;20719;-76
2023/04/28 08:15:18;;;;;;;3.70;2.80;;;10.10;99.90;;;;;;5135127;27;20220;-78
2023/04/28 08:17:46;;;;;;;3.77;3.23;;;10.30;99.90;;;;;;5135314;27;20212;-76
2023/04/28 08:20:18;;;;;;;4.43;3.70;;;10.30;99.90;;;;;;5134904;27;20208;-76
2023/04/28 08:22:49;;;;;;;4.23;3.30;;;10.40;99.90;;;;;;5134589;27;20266;-79
2023/04/28 08:25:17;;;;;;;6.00;3.40;;;10.50;99.90;;;;;;5134913;27;20237;-78
2023/04/28 08:27:45;;;;;;;4.73;3.00;;;10.60;99.90;;;;;;5134939;27;20216;-75
2023/04/28 08:30:13;;;;;;;6.27;3.10;;;10.60;99.90;;;;;;5134684;27;20225;-77
2023/04/28 08:32:41;;;;;;;3.60;2.80;;;10.60;99.90;;;;;;5134188;27;20232;-78
2023/04/28 08:35:10;;;;;;;5.97;3.50;;;10.60;99.90;;;;;;5134183;27;20304;-79
2023/04/28 08:37:39;;;;;;;3.83;3.00;;;10.60;99.90;;;;;;5134089;27;20202;-78
2023/04/28 08:40:09;;;;;;;4.93;3.40;;;10.60;99.90;;;;;;5138386;27;20651;-77
2023/04/28 08:42:38;;;;;;;4.30;3.00;;;10.70;99.90;;;;;;5154824;27;20257;-78
2023/04/28 08:45:07;;;;;;;5.80;3.30;;;10.70;99.90;;;;;;5155357;27;20204;-74
2023/04/28 08:47:37;;;;;;;5.07;3.10;;;10.80;99.90;;;;;;5144306;27;20209;-76
2023/04/28 08:50:07;;;;;;;5.67;3.63;;;10.70;99.90;;;;;;5134099;27;20296;-78
2023/04/28 08:52:36;;;;;;;4.47;3.00;;;10.80;99.90;;;;;;5134375;27;20208;-78
2023/04/28 08:55:09;;;;;;;5.30;3.80;;;10.80;99.90;;;;;;5133995;27;20588;-78
2023/04/28 08:57:40;;;;;;;3.70;3.00;;;10.90;99.90;;;;;;5135013;27;20206;-77
2023/04/28 09:00:09;;;;;;;5.10;3.00;;;11.00;99.90;;;;;;5134359;27;20221;-77
2023/04/28 09:02:40;;;;;;;4.67;2.87;;;11.10;99.90;;;;;;5134067;27;20209;-77
2023/04/28 09:05:10;;;;;;;4.83;3.30;;;11.20;99.90;;;;;;5155134;27;20595;-78
2023/04/28 09:07:39;;;;;;;3.93;2.90;;;11.30;99.90;;;;;;5155419;27;20632;-76
2023/04/28 09:10:22;;;;;;;5.20;2.80;;;11.60;99.90;;;;;;5155052;27;20216;-78
2023/04/28 09:12:53;;;;;;;3.80;2.97;;;11.60;99.90;;;;;;5141732;27;20236;-78
2023/04/28 09:15:31;;;;;;;3.97;2.80;;;11.50;99.90;;;;;;5134352;27;20194;-77
2023/04/28 09:18:01;;;;;;;3.27;2.60;;;11.60;99.90;;;;;;5133819;27;20341;-80
2023/04/28 09:20:31;;;;;;;3.40;2.70;;;11.70;99.90;;;;;;5146101;27;20551;-76
2023/04/28 09:23:14;;;;;;;3.67;2.80;;;11.60;99.90;;;;;;5153936;27;20209;-78
2023/04/28 09:25:58;;;;;;;6.40;2.87;;;11.60;99.90;;;;;;5154548;27;20287;-77
2023/04/28 09:28:27;;;;;;;4.40;2.70;;;11.40;99.90;;;;;;5141063;27;20278;-79
2023/04/28 09:30:55;;;;;;;4.03;2.90;;;11.30;99.90;;;;;;5133343;27;20513;-79
2023/04/28 09:33:24;;;;;;;3.90;2.70;;;11.30;99.90;;;;;;5133188;27;20552;-77
2023/04/28 09:35:52;;;;;;;4.10;3.20;;;11.40;99.90;;;;;;5137687;27;20205;-80
2023/04/28 09:38:22;;;;;;;4.77;3.10;;;11.40;99.90;;;;;;5153790;27;20213;-77
2023/04/28 09:40:52;;;;;;;4.67;2.93;;;11.50;99.90;;;;;;5154720;27;20235;-77
2023/04/28 09:43:26;;;;;;;3.07;2.77;;;11.50;99.90;;;;;;5154052;27;20204;-79
2023/04/28 09:45:55;;;;;;;4.60;2.90;;;11.60;99.90;;;;;;5134701;27;20201;-78
2023/04/28 09:48:31;;;;;;;2.90;2.50;;;11.50;99.90;;;;;;5133309;27;20210;-80
2023/04/28 09:51:00;;;;;;;3.83;2.20;;;11.50;99.90;;;;;;5133679;27;20239;-75
2023/04/28 09:53:29;;;;;;;3.73;2.50;;;11.60;99.90;;;;;;5132958;27;20209;-79
2023/04/28 09:55:58;;;;;;;4.07;2.70;;;11.60;99.90;;;;;;5133378;27;20308;-78
2023/04/28 09:58:29;;;;;;;3.00;2.60;;;11.60;99.90;;;;;;5133555;27;20228;-77
2023/04/28 10:00:59;;;;;;;3.27;2.70;;;11.60;99.90;;;;;;5133082;27;20232;-78
2023/04/28 10:03:29;;;;;;;2.57;2.33;;;11.80;99.90;;;;;;5153224;27;20208;-77
2023/04/28 10:05:59;;;;;;;4.60;2.70;;;11.70;99.90;;;;;;5155786;27;20672;-76
2023/04/28 10:08:28;;;;;;;3.90;2.40;;;11.70;99.90;;;;;;5156570;27;20248;-76
2023/04/28 10:10:57;;;;;;;2.60;2.40;;;11.60;99.90;;;;;;5154966;27;20224;-78
2023/04/28 10:13:26;;;;;;;3.37;2.27;;;11.50;99.90;;;;;;5156657;27;20688;-75
2023/04/28 10:15:56;;;;;;;4.07;2.70;;;11.60;99.90;;;;;;5157445;27;20257;-75
2023/04/28 10:18:25;;;;;;;4.97;2.70;;;11.60;99.90;;;;;;5150176;27;20202;-74
2023/04/28 10:20:58;;;;;;;3.17;2.60;;;11.60;99.90;;;;;;5137082;28;20213;-76
2023/04/28 10:24:02;;;;;;;4.17;3.10;;;11.60;99.90;;;;;;5136394;28;20190;-76
2023/04/28 10:27:08;;;;;;;4.07;3.10;;;11.60;99.90;;;;;;5136728;27;20212;-77
2023/04/28 10:29:37;;;;;;;5.33;3.20;;;11.50;99.90;;;;;;5136066;28;20294;-75
2023/04/28 10:32:16;;;;;;;6.00;3.73;;;11.40;99.90;;;;;;5135291;28;20231;-75
2023/04/28 10:34:44;;;;;;;5.63;3.50;;;11.40;99.90;;;;;;5143900;27;20209;-73
2023/04/28 10:37:13;;;;;;;4.97;3.50;;;11.30;99.90;;;;;;5140529;27;20612;-75
2023/04/28 10:39:42;;;;;;;4.20;3.50;;;11.20;99.90;;;;;;5157863;27;20734;-75
2023/04/28 10:42:43;;;;;;;3.80;3.40;;;11.20;99.90;;;;;;5149898;27;20205;-74
2023/04/28 10:45:13;;;;;;;5.20;3.40;;;11.10;99.90;;;;;;5136653;27;20223;-75
2023/04/28 10:48:02;;;;;;;6.13;3.80;;;11.00;99.90;;;;;;5136875;27;20209;-76
2023/04/28 10:50:31;;;;;;;4.37;3.67;;;11.00;99.90;;;;;;5136853;27;20209;-78
2023/04/28 10:53:06;;;;;;;5.57;3.43;;;10.90;99.90;;;;;;5136543;27;20232;-79
2023/04/28 10:55:36;;;;;;;4.53;3.40;;;11.00;99.90;;;;;;5136922;27;20257;-77
2023/04/28 10:58:32;;;;;;;5.00;3.60;;;10.90;99.90;;;;;;5137198;27;20635;-77
2023/04/28 11:01:28;;;;;;;4.53;3.27;;;10.90;99.90;;;;;;5135431;27;20550;-77
2023/04/28 11:04:02;;;;;;;6.53;3.33;;;10.90;99.90;;;;;;5137444;27;20297;-76
2023/04/28 11:06:34;;;;;;;6.23;3.10;;;11.00;99.90;;;;;;5137071;27;20204;-77
2023/04/28 11:09:24;;;;;;;4.90;3.23;;;11.00;99.90;;;;;;5155065;27;20205;-75
2023/04/28 11:12:05;;;;;;;7.60;3.37;;;11.10;99.90;;;;;;5159320;27;20320;-76
2023/04/28 11:14:34;;;;;;;5.93;3.07;;;11.10;99.90;;;;;;5157425;27;20231;-77
2023/04/28 11:17:05;;;;;;;4.57;3.00;;;11.00;99.90;;;;;;5149767;27;20201;-75
2023/04/28 11:19:35;;;;;;;3.47;2.90;;;11.00;99.90;;;;;;5137452;27;20194;-80
2023/04/28 11:22:10;;;;;;;6.30;3.50;;;11.00;99.90;;;;;;5140276;27;20258;-77
2023/04/28 11:24:38;;;;;;;5.07;3.17;;;11.10;99.90;;;;;;5139678;27;20225;-80
2023/04/28 11:27:07;;;;;;;4.53;3.40;;;11.10;99.90;;;;;;5138165;27;20213;-78
2023/04/28 11:29:36;;;;;;;4.17;3.10;;;11.10;99.90;;;;;;5138299;27;20201;-77
2023/04/28 11:32:10;;;;;;;4.07;3.00;;;11.10;99.90;;;;;;5136027;27;20591;-76
2023/04/28 11:34:38;;;;;;;7.23;3.40;;;11.10;99.90;;;;;;5140463;27;20209;-78
2023/04/28 11:37:07;;;;;;;3.90;3.00;;;11.10;99.90;;;;;;5163857;27;20209;-76
2023/04/28 11:39:36;;;;;;;3.73;3.17;;;11.20;99.90;;;;;;5162628;27;20254;-75
2023/04/28 11:42:10;;;;;;;4.33;3.13;;;11.20;99.90;;;;;;5147983;27;20292;-73
2023/04/28 11:44:38;;;;;;;3.97;3.40;;;11.40;99.90;;;;;;5136881;27;20225;-74
2023/04/28 11:47:08;;;;;;;3.60;3.20;;;11.20;99.90;;;;;;5136568;27;20396;-78
2023/04/28 11:49:43;;;;;;;5.30;3.17;;;11.30;99.90;;;;;;5136306;27;20212;-76
2023/04/28 11:52:11;;;;;;;4.40;3.27;;;11.40;99.90;;;;;;5135916;27;20231;-74
2023/04/28 11:54:42;;;;;;;6.07;3.70;;;11.60;99.90;;;;;;5136573;27;20659;-78
2023/04/28 11:57:17;;;;;;;6.03;3.73;;;11.60;99.90;;;;;;5144200;27;20205;-76
2023/04/28 11:59:46;;;;;;;4.30;3.40;;;11.80;99.90;;;;;;5152658;27;20429;-75
2023/04/28 12:02:24;;;;;;;4.80;3.23;;;11.90;99.90;;;;;;5136166;27;20264;-76
2023/04/28 12:04:52;;;;;;;3.40;2.90;;;12.10;99.90;;;;;;5138327;27;20634;-79
2023/04/28 12:07:20;;;;;;;3.47;2.60;;;12.30;99.90;;;;;;5137369;27;20225;-77
2023/04/28 12:10:10;;;;;;;3.50;2.30;;;12.50;99.90;;;;;;5137943;27;20241;-78
2023/04/28 12:12:38;;;;;;;3.00;2.30;;;12.60;99.90;;;;;;5140614;27;20226;-77
2023/04/28 12:15:19;;;;;;;3.50;2.07;;;12.80;99.90;;;;;;5138764;27;20193;-77
2023/04/28 12:17:50;;;;;;;3.77;1.90;;;12.80;99.90;;;;;;5144299;27;20205;-74
2023/04/28 12:20:35;;;;;;;3.90;1.93;;;12.90;99.90;;;;;;5156323;27;20662;-79
2023/04/28 12:23:04;;;;;;;2.57;1.70;;;13.10;99.90;;;;;;5158344;27;20227;-77
2023/04/28 12:25:33;;;;;;;2.13;1.63;;;13.20;99.90;;;;;;5156736;27;20224;-73
2023/04/28 12:28:04;;;;;;;2.03;1.70;;;13.30;99.90;;;;;;5144941;27;20209;-77
2023/04/28 12:30:34;;;;;;;2.67;1.70;;;13.40;99.90;;;;;;5138153;27;20213;-78
2023/04/28 12:33:03;;;;;;;2.10;1.30;;;13.40;99.90;;;;;;5137868;27;20691;-78
2023/04/28 12:35:32;;;;;;;2.00;1.27;;;13.40;99.90;;;;;;5148406;27;20213;-78
2023/04/28 12:38:00;;;;;;;1.83;1.20;;;13.40;99.90;;;;;;5157504;27;20684;-75
2023/04/28 12:40:28;;;;;;;1.30;1.20;;;13.50;99.90;;;;;;5156724;27;20623;-79
2023/04/28 12:42:56;;;;;;;1.93;1.37;;;13.50;99.90;;;;;;5157473;27;20196;-77
2023/04/28 12:45:25;;;;;;;1.03;0.90;;;13.60;99.90;;;;;;5147395;27;20220;-77
2023/04/28 12:47:53;;;;;;;3.30;1.27;;;13.50;99.90;;;;;;5137918;27;20240;-79
2023/04/28 12:50:23;;;;;;;3.67;1.37;;;13.30;99.90;;;;;;5137095;27;20293;-78
2023/04/28 12:52:51;;;;;;;1.30;1.20;;;13.40;99.90;;;;;;5137640;27;20221;-74
2023/04/28 12:55:19;;;;;;;2.77;1.30;;;13.30;99.90;;;;;;5137576;27;20628;-76
2023/04/28 12:57:47;;;;;;;2.47;1.47;;;13.40;99.90;;;;;;5137114;27;20613;-77
2023/04/28 13:00:16;;;;;;;2.07;1.40;;;13.50;99.90;;;;;;5137142;27;20613;-77